createdAt,value
2022-09-03T00:01:39.964Z,11.87
2022-09-03T00:11:16.604Z,11.79
2022-09-03T00:20:53.559Z,11.5
2022-09-03T00:30:30.382Z,11.14
2022-09-03T00:40:07.766Z,11.22
2022-09-03T00:49:44.706Z,10.97
2022-09-03T00:59:21.282Z,10.53
2022-09-03T01:08:58.295Z,10.65
2022-09-03T01:18:35.145Z,10.41
2022-09-03T01:28:12.026Z,10.47
2022-09-03T01:37:48.834Z,10.3
2022-09-03T01:47:25.613Z,9.9
2022-09-03T01:57:02.092Z,9.64
2022-09-03T02:06:38.890Z,9.41
2022-09-03T02:16:15.667Z,9.15
2022-09-03T02:25:52.472Z,9.11
2022-09-03T02:35:29.431Z,8.75
2022-09-03T02:45:06.194Z,8.63
2022-09-03T02:54:42.594Z,8.52
2022-09-03T03:04:19.378Z,8.47
2022-09-03T03:13:56.224Z,8.33
2022-09-03T03:23:32.958Z,8.05
2022-09-03T03:33:09.472Z,7.91
2022-09-03T03:42:46.207Z,7.92
2022-09-03T03:52:23.263Z,7.77
2022-09-03T04:02:00.372Z,7.77
2022-09-03T04:11:37.142Z,7.75
2022-09-03T04:21:13.874Z,7.65
2022-09-03T04:30:50.944Z,7.53
2022-09-03T04:40:27.733Z,7.42
2022-09-03T04:50:04.638Z,7.43
2022-09-03T04:59:41.638Z,7.49
2022-09-03T05:09:18.911Z,7.65
2022-09-03T05:18:56.400Z,7.86
2022-09-03T05:28:33.798Z,7.92
2022-09-03T05:38:10.830Z,8.31
2022-09-03T05:47:48.444Z,8.81
2022-09-03T05:57:26.373Z,9.22
2022-09-03T06:07:04.528Z,10.12
2022-09-03T06:16:42.728Z,10.68
2022-09-03T06:26:20.370Z,11.08
2022-09-03T06:35:58.079Z,11.48
2022-09-03T06:45:36.166Z,11.95
2022-09-03T06:55:14.332Z,12.37
2022-09-03T07:04:52.433Z,12.87
2022-09-03T07:14:30.697Z,13.52
2022-09-03T07:24:08.367Z,14.08
2022-09-03T07:33:46.705Z,14.82
2022-09-03T07:43:24.234Z,15.28
2022-09-03T07:53:02.505Z,15.55
2022-09-03T08:02:44.214Z,16.15
2022-09-03T08:12:18.136Z,16.68
2022-09-03T08:21:56.127Z,16.81
2022-09-03T08:31:34.225Z,17.33
2022-09-03T08:41:12.474Z,17.7
2022-09-03T08:50:50.774Z,18.13
2022-09-03T09:00:29.078Z,18.77
2022-09-03T09:10:07.574Z,19.14
2022-09-03T09:19:46.225Z,19.72
2022-09-03T09:29:24.398Z,20.07
2022-09-03T09:39:02.790Z,20.55
2022-09-03T09:48:41.205Z,21.22
2022-09-03T09:58:20.271Z,22.43
2022-09-03T10:08:27.930Z,23.49
2022-09-03T10:18:14.298Z,23.66
2022-09-03T10:27:59.859Z,24.83
2022-09-03T10:37:41.851Z,25.89
2022-09-03T10:47:22.809Z,24.99
2022-09-03T10:57:02.914Z,26.16
2022-09-03T11:06:44.563Z,25.86
2022-09-03T11:16:22.286Z,25.8
2022-09-03T11:26:00.631Z,26.75
2022-09-03T11:35:40.069Z,27.25
2022-09-03T11:45:21.386Z,28.76
2022-09-03T11:55:01.265Z,27.56
2022-09-03T12:04:37.894Z,26.37
2022-09-03T12:14:18.533Z,26.93
2022-09-03T12:23:41.994Z,27.9
2022-09-03T12:33:31.733Z,28.92
2022-09-03T12:52:48.544Z,29.8
2022-09-03T13:02:17.089Z,27.03
2022-09-03T13:11:50.566Z,28.05
2022-09-03T13:21:40.239Z,29.32
2022-09-03T13:31:15.816Z,27.76
2022-09-03T13:40:40.802Z,24.87
2022-09-03T13:50:28.532Z,26.73
2022-09-03T14:00:07.480Z,24.82
2022-09-03T14:09:39.807Z,25.04
2022-09-03T14:19:26.279Z,25.78
2022-09-03T14:29:20.699Z,28.04
2022-09-03T14:38:55.109Z,27.16
2022-09-03T14:48:16.264Z,23.78
2022-09-03T14:57:46.660Z,24.54
2022-09-03T15:07:21.437Z,24.08
2022-09-03T15:16:56.600Z,23.22
2022-09-03T15:26:32.719Z,23.22
2022-09-03T15:36:09.074Z,22.87
2022-09-03T15:45:45.602Z,22.72
2022-09-03T15:55:22.491Z,22.6
2022-09-03T16:04:59.368Z,22.16
2022-09-03T16:14:36.693Z,21.83
2022-09-03T16:24:14.311Z,21.4
2022-09-03T16:33:50.217Z,21.36
2022-09-03T16:43:40.532Z,21.23
2022-09-03T16:53:04.815Z,21.1
2022-09-03T17:02:42.625Z,21
2022-09-03T17:12:19.401Z,20.9
2022-09-03T17:21:56.392Z,20.5
2022-09-03T17:31:33.948Z,20.33
2022-09-03T17:41:10.953Z,20.18
2022-09-03T17:50:47.984Z,20.01
2022-09-03T18:00:25.167Z,19.87
2022-09-03T18:10:02.484Z,19.65
2022-09-03T18:19:37.965Z,19.26
2022-09-03T18:29:14.814Z,18.67
2022-09-03T18:38:51.450Z,18.38
2022-09-03T18:48:28.335Z,18.16
2022-09-03T18:58:05.149Z,17.74
2022-09-03T19:07:42.002Z,17.92
2022-09-03T19:17:20.241Z,17.72
2022-09-03T19:26:56.324Z,17.68
2022-09-03T19:36:33.600Z,17.63
2022-09-03T19:46:10.729Z,17.47
2022-09-03T19:55:47.971Z,17.37
2022-09-03T20:05:25.280Z,17.34
2022-09-03T20:15:02.167Z,17.03
2022-09-03T20:24:39.073Z,16.93
2022-09-03T20:34:16.309Z,16.78
2022-09-03T20:43:53.265Z,16.71
2022-09-03T20:53:29.983Z,16.59
2022-09-03T21:03:07.199Z,16.42
2022-09-03T21:12:44.312Z,16.33
2022-09-03T21:22:21.260Z,16.06
2022-09-03T21:31:58.381Z,15.94
2022-09-03T21:41:35.534Z,15.56
2022-09-03T21:51:12.242Z,15.28
2022-09-03T22:00:48.998Z,15.07
2022-09-03T22:10:26.103Z,14.58
2022-09-03T22:20:02.633Z,14.38
2022-09-03T22:29:39.692Z,14.21
2022-09-03T22:39:16.455Z,13.97
2022-09-03T22:48:53.242Z,13.55
2022-09-03T22:58:29.504Z,13.26
2022-09-03T23:08:06.080Z,13.08
2022-09-03T23:17:42.657Z,12.81
2022-09-03T23:27:19.471Z,12.84
2022-09-03T23:37:16.396Z,12.7
2022-09-03T23:46:33.364Z,12.42
2022-09-03T23:56:10.407Z,12.45
